Applegate, Oregon
Current Conditions -  °F | °C
As of 2:53 PM on Thursday 27 Nov 2014 (Local Time) from KMFR Reporting Station
Broken Clouds Broken Clouds  
Wind Chill: 14°   Ceiling: 10000
Heat Index: 14°   Visibility: 10mi
Dew Point:   Wind: 0mph
Humidity: 72%   Direction: NA
Pressure: 29.97"   Gusts: NA
Location:  42.1499°N, 123.043°W
Report Text: KMFR 272253Z 00000KT 10SM BKN100 14/09 A2997 RMK AO2 SLP147 T01440094
Loading
Personal Weather Stations






























Interactive Weather Map New forecast layout! Learn more

10-Day Weather Forecast

Advertisements
Track Severe Weather on mobile